Time;durP1;ratioP1;P1;durP2;ratioP2;P2;SDS_P1;SDS_P2;PMS_P1;PMS_P2;Temp;Humidity;BMP_temperature;BMP_pressure;BME280_temperature;BME280_humidity;BME280_pressure;Samples;Min_cycle;Max_cycle;Signal;HPM_P1;HPM_P2
2023/03/24 00:01:16;;;;;;;5.50;1.30;;;28.90;99.90;;;;;;5074682;28;20176;-72
2023/03/24 00:03:52;;;;;;;4.70;1.70;;;29.50;99.90;;;;;;5075134;28;20522;-72
2023/03/24 00:06:21;;;;;;;4.28;1.67;;;30.50;99.90;;;;;;5061831;28;20217;-72
2023/03/24 00:08:48;;;;;;;2.15;1.15;;;30.30;99.90;;;;;;5054618;28;20232;-73
2023/03/24 00:11:18;;;;;;;3.28;1.55;;;29.60;99.90;;;;;;5055035;28;20181;-72
2023/03/24 00:17:16;;;;;;;3.73;1.60;;;28.00;99.90;;;;;;5049631;28;20234;-74
2023/03/24 00:19:44;;;;;;;4.60;1.73;;;27.50;99.90;;;;;;5054941;28;20216;-72
2023/03/24 00:22:13;;;;;;;3.83;1.50;;;27.00;99.90;;;;;;5054650;28;20177;-72
2023/03/24 00:24:45;;;;;;;3.83;1.53;;;26.70;99.90;;;;;;5068824;28;20649;-74
2023/03/24 00:27:14;;;;;;;2.77;1.17;;;27.30;99.90;;;;;;5073420;28;20759;-71
2023/03/24 00:29:41;;;;;;;3.97;1.60;;;28.20;99.90;;;;;;5074323;28;20180;-73
2023/03/24 00:32:09;;;;;;;4.63;1.40;;;27.90;99.90;;;;;;5074696;28;20172;-74
2023/03/24 00:34:37;;;;;;;6.40;1.70;;;28.40;99.90;;;;;;5057705;28;20209;-74
2023/03/24 00:37:07;;;;;;;2.77;1.37;;;29.40;99.90;;;;;;5054051;28;20216;-74
2023/03/24 00:39:35;;;;;;;4.05;1.58;;;30.00;99.90;;;;;;5054533;28;20330;-73
2023/03/24 00:42:02;;;;;;;2.75;1.27;;;31.20;99.90;;;;;;5053306;28;20177;-73
2023/03/24 00:44:30;;;;;;;4.38;1.33;;;32.00;99.90;;;;;;5054014;28;20189;-75
2023/03/24 00:46:58;;;;;;;2.45;1.30;;;32.00;99.90;;;;;;5064820;28;20245;-73
2023/03/24 00:49:47;;;;;;;3.72;1.77;;;31.90;99.90;;;;;;5060495;28;20191;-71
2023/03/24 00:52:19;;;;;;;3.90;1.83;;;32.30;99.90;;;;;;5058581;28;20192;-72
2023/03/24 00:54:48;;;;;;;5.38;1.30;;;32.20;99.90;;;;;;5068325;28;20664;-72
2023/03/24 00:57:24;;;;;;;4.32;1.48;;;31.40;99.90;;;;;;5059010;28;20199;-73
2023/03/24 00:59:54;;;;;;;4.07;1.80;;;30.50;99.90;;;;;;5060640;28;20224;-73
2023/03/24 01:02:26;;;;;;;3.42;1.52;;;30.70;99.90;;;;;;5053037;28;20181;-73
2023/03/24 01:04:56;;;;;;;6.85;1.98;;;30.40;99.90;;;;;;5070810;28;20192;-75
2023/03/24 01:07:29;;;;;;;6.38;2.10;;;29.60;99.90;;;;;;5068699;28;20192;-73
2023/03/24 01:09:57;;;;;;;3.03;1.87;;;28.50;99.90;;;;;;5054342;28;20181;-73
2023/03/24 01:12:27;;;;;;;5.43;1.90;;;27.60;99.90;;;;;;5068570;28;20195;-73
2023/03/24 01:14:55;;;;;;;7.10;2.00;;;27.20;99.90;;;;;;5071569;28;20593;-73
2023/03/24 01:17:26;;;;;;;5.90;1.83;;;26.80;99.90;;;;;;5067765;28;20196;-73
2023/03/24 01:19:53;;;;;;;5.90;2.00;;;26.70;99.90;;;;;;5059674;28;20393;-75
2023/03/24 01:22:22;;;;;;;5.07;1.70;;;26.70;99.90;;;;;;5068757;28;20194;-73
2023/03/24 01:24:51;;;;;;;6.40;2.13;;;26.70;99.90;;;;;;5052541;28;20715;-72
2023/03/24 01:27:19;;;;;;;3.60;1.97;;;26.50;99.90;;;;;;5068926;28;20646;-73
2023/03/24 01:29:46;;;;;;;6.07;2.17;;;26.40;99.90;;;;;;5058860;28;20573;-72
2023/03/24 01:32:14;;;;;;;8.97;1.90;;;27.30;99.90;;;;;;5053467;28;20192;-72
2023/03/24 01:34:41;;;;;;;4.27;2.03;;;28.80;99.90;;;;;;5053441;28;20275;-73
2023/03/24 01:37:08;;;;;;;4.80;1.87;;;29.00;99.90;;;;;;5052977;28;20603;-71
2023/03/24 01:39:36;;;;;;;3.27;1.47;;;28.70;99.90;;;;;;5057306;28;20243;-72
2023/03/24 01:42:03;;;;;;;4.67;1.70;;;28.20;99.90;;;;;;5070410;28;20602;-71
2023/03/24 01:44:37;;;;;;;3.90;1.40;;;27.90;99.90;;;;;;5052431;28;20198;-72
2023/03/24 01:47:08;;;;;;;2.23;1.80;;;27.50;99.90;;;;;;5071430;28;20595;-73
2023/03/24 01:49:40;;;;;;;5.57;2.00;;;27.30;99.90;;;;;;5065326;28;20183;-73
2023/03/24 01:52:15;;;;;;;8.63;1.93;;;27.80;99.90;;;;;;5070793;28;20282;-72
2023/03/24 01:54:55;;;;;;;5.00;1.60;;;28.80;99.90;;;;;;5062739;28;20176;-73
2023/03/24 01:57:29;;;;;;;4.80;1.93;;;28.90;99.90;;;;;;5068161;28;20193;-74
2023/03/24 02:00:02;;;;;;;6.37;1.67;;;28.70;99.90;;;;;;5050809;28;20220;-73
2023/03/24 02:02:33;;;;;;;3.67;1.53;;;27.90;99.90;;;;;;5052865;28;20530;-73
2023/03/24 02:05:04;;;;;;;8.40;1.80;;;27.10;99.90;;;;;;5050595;28;20199;-72
2023/03/24 02:07:52;;;;;;;3.33;1.83;;;26.40;99.90;;;;;;5053094;28;20229;-72
2023/03/24 02:10:22;;;;;;;4.63;1.50;;;26.30;99.90;;;;;;5053004;28;20258;-72
2023/03/24 02:12:49;;;;;;;5.57;2.10;;;26.10;99.90;;;;;;5052402;28;20184;-74
2023/03/24 02:15:18;;;;;;;4.03;2.03;;;26.00;99.90;;;;;;5051032;28;20319;-73
2023/03/24 02:17:53;;;;;;;3.63;1.70;;;25.90;99.90;;;;;;5052490;28;20193;-73
2023/03/24 02:20:45;;;;;;;4.20;1.83;;;26.40;99.90;;;;;;5052226;28;20192;-75
2023/03/24 02:23:36;;;;;;;7.10;1.63;;;27.60;99.90;;;;;;5068828;28;20184;-74
2023/03/24 02:26:25;;;;;;;5.07;1.60;;;27.50;99.90;;;;;;5070046;28;20561;-73
2023/03/24 02:28:52;;;;;;;3.37;1.50;;;27.40;99.90;;;;;;5032278;28;20173;-73
2023/03/24 02:31:56;;;;;;;5.87;1.50;;;28.10;99.90;;;;;;5055111;28;20203;-73
2023/03/24 02:34:49;;;;;;;4.07;1.50;;;29.60;99.90;;;;;;5072268;28;20176;-73
2023/03/24 02:37:32;;;;;;;5.17;1.30;;;30.00;99.90;;;;;;5068159;28;20278;-73
2023/03/24 02:40:06;;;;;;;8.90;1.57;;;30.30;99.90;;;;;;5049276;28;20216;-73
2023/03/24 02:46:29;;;;;;;6.40;1.80;;;29.50;99.90;;;;;;5049783;28;20235;-72
2023/03/24 02:49:20;;;;;;;2.17;1.60;;;28.80;99.90;;;;;;5057975;28;20250;-72
2023/03/24 02:51:50;;;;;;;6.40;1.60;;;28.30;99.90;;;;;;5071505;28;20191;-71
2023/03/24 02:55:02;;;;;;;4.73;1.60;;;28.00;99.90;;;;;;5070864;28;20176;-71
2023/03/24 02:57:59;;;;;;;2.20;1.20;;;27.50;99.90;;;;;;5045340;28;20268;-71
2023/03/24 03:00:49;;;;;;;3.03;1.40;;;28.20;99.90;;;;;;5031929;28;20209;-71
2023/03/24 03:03:23;;;;;;;7.27;1.63;;;28.30;99.90;;;;;;5032218;28;20181;-71
2023/03/24 03:05:59;;;;;;;3.03;1.70;;;29.10;99.90;;;;;;5053635;28;20206;-72
2023/03/24 03:08:33;;;;;;;5.03;1.87;;;29.30;99.90;;;;;;5070607;28;20196;-72
2023/03/24 03:11:09;;;;;;;3.37;1.33;;;28.80;99.90;;;;;;5072563;28;20199;-71
2023/03/24 03:14:05;;;;;;;5.30;1.77;;;29.20;99.90;;;;;;5069313;28;20202;-71
2023/03/24 03:16:47;;;;;;;3.40;1.50;;;29.40;99.90;;;;;;5069834;28;20249;-72
2023/03/24 03:19:22;;;;;;;5.90;1.80;;;29.50;99.90;;;;;;5071741;28;20315;-72
2023/03/24 03:21:51;;;;;;;3.93;1.67;;;29.00;99.90;;;;;;5072094;28;20183;-73
2023/03/24 03:24:26;;;;;;;3.97;1.80;;;29.50;99.90;;;;;;5072132;28;20168;-73
2023/03/24 03:27:04;;;;;;;4.57;1.70;;;30.10;99.90;;;;;;5071514;28;20180;-72
2023/03/24 03:29:46;;;;;;;7.67;1.77;;;30.20;99.90;;;;;;5071986;28;20201;-73
2023/03/24 03:32:29;;;;;;;5.38;1.58;;;30.70;99.90;;;;;;5072081;28;20616;-73
2023/03/24 03:35:10;;;;;;;6.00;1.43;;;30.50;99.90;;;;;;5071328;28;20614;-72
2023/03/24 03:38:17;;;;;;;5.67;1.97;;;30.40;99.90;;;;;;5071622;28;20659;-73
2023/03/24 03:40:51;;;;;;;5.18;2.40;;;30.40;99.90;;;;;;5049305;28;20204;-73
2023/03/24 03:43:19;;;;;;;5.40;2.00;;;29.70;99.90;;;;;;5068677;28;20269;-72
2023/03/24 03:45:47;;;;;;;6.80;1.70;;;29.60;99.90;;;;;;5070039;28;20618;-73
2023/03/24 03:48:16;;;;;;;6.27;1.50;;;29.40;99.90;;;;;;5071598;28;20211;-73
2023/03/24 03:50:44;;;;;;;5.07;1.90;;;29.10;99.90;;;;;;5071094;28;20226;-73
2023/03/24 03:53:14;;;;;;;5.70;1.90;;;28.70;99.90;;;;;;5071489;28;20176;-73
2023/03/24 03:55:43;;;;;;;4.53;1.70;;;28.70;99.90;;;;;;5071558;28;20180;-73
2023/03/24 03:58:10;;;;;;;5.90;1.50;;;28.10;99.90;;;;;;5070997;28;20413;-73
2023/03/24 04:00:38;;;;;;;5.53;1.63;;;27.70;99.90;;;;;;5071423;28;20180;-73
2023/03/24 04:03:33;;;;;;;3.80;1.60;;;28.10;99.90;;;;;;5071396;28;20210;-73
2023/03/24 04:06:34;;;;;;;6.30;2.10;;;28.70;99.90;;;;;;5071344;28;20225;-73
2023/03/24 04:09:23;;;;;;;3.47;1.70;;;29.80;99.90;;;;;;5070132;28;20190;-73
2023/03/24 04:12:14;;;;;;;3.90;1.60;;;30.10;99.90;;;;;;5070902;28;20188;-73
2023/03/24 04:14:44;;;;;;;4.80;1.83;;;29.90;99.90;;;;;;5071302;28;20176;-73
2023/03/24 04:17:30;;;;;;;5.60;2.03;;;28.90;99.90;;;;;;5070938;28;20219;-74
2023/03/24 04:20:11;;;;;;;3.87;2.17;;;28.10;99.90;;;;;;5070705;28;20219;-73
2023/03/24 04:23:13;;;;;;;7.00;1.87;;;27.50;99.90;;;;;;5071478;28;20194;-72
2023/03/24 04:26:00;;;;;;;3.83;1.90;;;27.20;99.90;;;;;;5070534;28;20175;-73
2023/03/24 04:28:39;;;;;;;4.50;1.80;;;27.10;99.90;;;;;;5072663;28;20603;-73
2023/03/24 04:31:13;;;;;;;6.23;1.80;;;27.10;99.90;;;;;;5062801;28;20536;-73
2023/03/24 04:34:12;;;;;;;6.23;1.93;;;27.40;99.90;;;;;;5054309;28;20169;-72
2023/03/24 04:36:53;;;;;;;6.13;1.63;;;27.80;99.90;;;;;;5056558;28;20196;-73
2023/03/24 04:39:29;;;;;;;10.70;2.03;;;28.00;99.90;;;;;;5054597;28;20585;-73
2023/03/24 04:41:59;;;;;;;6.83;1.50;;;28.10;99.90;;;;;;5052975;28;20183;-72
2023/03/24 04:44:31;;;;;;;3.83;1.50;;;28.40;99.90;;;;;;5054478;28;20196;-73
2023/03/24 04:47:01;;;;;;;3.47;1.70;;;28.60;99.90;;;;;;5054538;28;20181;-73
2023/03/24 04:49:28;;;;;;;6.77;1.50;;;28.40;99.90;;;;;;5053903;28;20215;-73
2023/03/24 04:51:56;;;;;;;6.83;2.33;;;28.10;99.90;;;;;;5052525;28;20186;-73
2023/03/24 04:54:24;;;;;;;5.03;1.93;;;27.60;99.90;;;;;;5054354;28;20619;-72
2023/03/24 04:56:57;;;;;;;6.87;1.83;;;27.40;99.90;;;;;;5054037;28;20169;-73
2023/03/24 04:59:25;;;;;;;3.80;1.30;;;27.80;99.90;;;;;;5053996;28;20295;-72
2023/03/24 05:01:52;;;;;;;7.40;1.80;;;28.00;99.90;;;;;;5043141;28;20187;-72
2023/03/24 05:04:22;;;;;;;6.67;2.10;;;27.90;99.90;;;;;;5072361;28;20180;-72
2023/03/24 05:06:49;;;;;;;6.93;1.73;;;28.00;99.90;;;;;;5074073;28;20597;-72
2023/03/24 05:09:20;;;;;;;5.40;1.60;;;27.70;99.90;;;;;;5073964;28;20183;-73
2023/03/24 05:11:48;;;;;;;9.13;1.83;;;27.40;99.90;;;;;;5067452;28;20246;-72
2023/03/24 05:14:16;;;;;;;4.17;1.53;;;27.10;99.90;;;;;;5053855;28;20227;-72
2023/03/24 05:16:43;;;;;;;6.77;1.80;;;27.10;99.90;;;;;;5033658;28;20769;-72
2023/03/24 05:19:11;;;;;;;5.37;1.77;;;26.80;99.90;;;;;;5043800;28;20302;-72
2023/03/24 05:21:40;;;;;;;7.40;1.60;;;26.60;99.90;;;;;;5072504;28;20242;-72
2023/03/24 05:24:07;;;;;;;4.77;1.80;;;26.30;99.90;;;;;;5073705;28;20237;-72
2023/03/24 05:26:35;;;;;;;1.97;1.20;;;26.00;99.90;;;;;;5064296;28;20189;-72
2023/03/24 05:29:02;;;;;;;4.30;1.40;;;26.00;99.90;;;;;;5052293;28;20742;-72
2023/03/24 05:31:30;;;;;;;5.87;1.53;;;26.10;99.90;;;;;;5033853;28;20177;-72
2023/03/24 05:33:59;;;;;;;5.83;2.23;;;26.30;99.90;;;;;;5067397;28;20262;-73
2023/03/24 05:36:26;;;;;;;4.43;1.33;;;26.40;99.90;;;;;;5057656;28;20181;-72
2023/03/24 05:38:54;;;;;;;6.83;1.70;;;26.50;99.90;;;;;;5053262;28;20240;-71
2023/03/24 05:41:21;;;;;;;6.23;1.40;;;26.60;99.90;;;;;;5064383;28;20211;-71
2023/03/24 05:43:48;;;;;;;3.27;1.70;;;26.80;99.90;;;;;;5053541;28;20185;-71
2023/03/24 05:46:16;;;;;;;2.73;1.20;;;27.00;99.90;;;;;;5033533;28;20239;-71
2023/03/24 05:48:43;;;;;;;8.47;1.40;;;26.80;99.90;;;;;;5046030;28;20196;-72
2023/03/24 05:51:10;;;;;;;5.60;1.50;;;26.40;99.90;;;;;;5053275;28;20187;-72
2023/03/24 05:53:38;;;;;;;7.07;1.70;;;26.20;99.90;;;;;;5053288;28;20169;-73
2023/03/24 05:56:10;;;;;;;10.33;1.53;;;25.90;99.90;;;;;;5063016;28;20191;-72
2023/03/24 05:58:38;;;;;;;5.33;1.60;;;25.70;99.90;;;;;;5071895;28;20246;-74
2023/03/24 06:01:12;;;;;;;4.70;1.43;;;25.50;99.90;;;;;;5034119;28;20193;-71
2023/03/24 06:03:39;;;;;;;4.47;1.50;;;25.60;99.90;;;;;;5032792;28;20174;-73
2023/03/24 06:06:15;;;;;;;7.73;2.07;;;25.60;99.90;;;;;;5043104;28;20238;-74
2023/03/24 06:08:46;;;;;;;5.13;1.50;;;25.50;99.90;;;;;;5063248;28;20642;-73
2023/03/24 06:11:15;;;;;;;4.20;1.50;;;25.40;99.90;;;;;;5032571;28;20189;-73
2023/03/24 06:13:42;;;;;;;9.27;2.13;;;25.20;99.90;;;;;;5042173;28;20225;-72
2023/03/24 06:16:10;;;;;;;5.73;1.87;;;25.10;99.90;;;;;;5062357;28;20224;-73
2023/03/24 06:18:41;;;;;;;6.27;1.77;;;24.90;99.90;;;;;;5062130;28;20219;-72
2023/03/24 06:21:08;;;;;;;5.17;1.60;;;24.90;99.90;;;;;;5071205;28;20199;-72
2023/03/24 06:23:37;;;;;;;8.17;2.27;;;24.80;99.90;;;;;;5072548;28;20598;-72
2023/03/24 06:26:10;;;;;;;2.67;1.60;;;24.90;99.90;;;;;;5072019;28;20171;-71
2023/03/24 06:28:38;;;;;;;4.33;1.60;;;24.80;99.90;;;;;;5058363;28;20650;-72
2023/03/24 06:31:13;;;;;;;6.03;1.47;;;24.70;99.90;;;;;;5050228;28;20191;-72
2023/03/24 06:33:44;;;;;;;7.37;1.63;;;24.60;99.90;;;;;;5044503;28;20638;-72
2023/03/24 06:36:12;;;;;;;4.90;1.40;;;24.60;99.90;;;;;;5032310;28;20630;-73
2023/03/24 06:38:41;;;;;;;3.13;1.50;;;24.60;99.90;;;;;;5031939;28;20242;-72
2023/03/24 06:41:08;;;;;;;7.10;1.60;;;24.60;99.90;;;;;;5066817;28;20280;-72
2023/03/24 06:43:35;;;;;;;3.00;1.57;;;24.60;99.90;;;;;;5066449;28;20238;-73
2023/03/24 06:46:03;;;;;;;5.73;1.63;;;24.50;99.90;;;;;;5051946;28;20523;-72
2023/03/24 06:48:30;;;;;;;5.13;2.27;;;24.50;99.90;;;;;;5052251;28;20180;-72
2023/03/24 06:50:58;;;;;;;4.70;1.40;;;24.40;99.90;;;;;;5053762;28;20241;-72
2023/03/24 06:53:25;;;;;;;3.00;1.30;;;24.50;99.90;;;;;;5071976;28;20179;-72
2023/03/24 06:55:53;;;;;;;9.43;1.80;;;24.60;99.90;;;;;;5035787;28;20181;-73
2023/03/24 06:58:20;;;;;;;10.67;1.90;;;24.50;99.90;;;;;;5031945;28;20614;-73
2023/03/24 07:00:49;;;;;;;7.30;1.77;;;24.40;99.90;;;;;;5031954;28;20531;-73
2023/03/24 07:03:17;;;;;;;4.43;1.60;;;24.40;99.90;;;;;;5031602;28;20189;-72
2023/03/24 07:05:45;;;;;;;8.63;1.90;;;24.30;99.90;;;;;;5031928;28;20639;-72
2023/03/24 07:08:13;;;;;;;3.20;1.73;;;24.20;99.90;;;;;;5047067;28;20185;-73
2023/03/24 07:10:41;;;;;;;6.53;1.20;;;24.20;99.90;;;;;;5031747;28;20254;-73
2023/03/24 07:13:09;;;;;;;7.13;1.40;;;24.20;99.90;;;;;;5065584;28;20208;-73
2023/03/24 07:15:36;;;;;;;4.53;1.50;;;24.10;99.90;;;;;;5071458;28;20226;-72
2023/03/24 07:18:04;;;;;;;4.00;1.40;;;24.10;99.90;;;;;;5070489;28;20282;-72
2023/03/24 07:20:31;;;;;;;5.17;1.50;;;23.90;99.90;;;;;;5071657;28;20270;-73
2023/03/24 07:22:59;;;;;;;6.27;1.57;;;23.80;99.90;;;;;;5070672;28;20188;-73
2023/03/24 07:25:26;;;;;;;9.23;1.70;;;23.70;99.90;;;;;;5071349;28;20180;-72
2023/03/24 07:27:55;;;;;;;4.37;1.43;;;23.70;99.90;;;;;;5071676;28;20197;-73
2023/03/24 07:30:24;;;;;;;5.53;1.43;;;23.60;99.90;;;;;;5069021;28;20187;-73
2023/03/24 07:32:53;;;;;;;6.73;1.50;;;23.60;99.90;;;;;;5060915;28;20199;-72
2023/03/24 07:35:21;;;;;;;5.03;1.80;;;23.50;99.90;;;;;;5051592;28;20188;-73
2023/03/24 07:37:49;;;;;;;5.23;1.60;;;23.50;99.90;;;;;;5050234;28;20188;-72
2023/03/24 07:40:16;;;;;;;4.30;1.40;;;23.40;99.90;;;;;;5051295;28;20349;-74
2023/03/24 07:42:44;;;;;;;5.77;1.40;;;23.30;99.90;;;;;;5059747;28;20289;-73
2023/03/24 07:45:12;;;;;;;4.53;1.53;;;23.30;99.90;;;;;;5071359;28;20172;-72
2023/03/24 07:47:42;;;;;;;4.93;1.80;;;23.20;99.90;;;;;;5071401;28;20176;-74
2023/03/24 07:50:10;;;;;;;7.17;1.37;;;23.20;99.90;;;;;;5064341;28;20184;-73
2023/03/24 07:52:39;;;;;;;8.93;1.13;;;23.10;99.90;;;;;;5059442;28;20191;-72
2023/03/24 07:55:11;;;;;;;6.20;1.40;;;23.10;99.90;;;;;;5071438;28;20554;-72
2023/03/24 07:57:50;;;;;;;4.93;1.70;;;23.00;99.90;;;;;;5070432;28;20255;-72
2023/03/24 08:00:18;;;;;;;3.77;1.40;;;22.90;99.90;;;;;;5060062;28;20243;-72
2023/03/24 08:02:48;;;;;;;4.90;1.30;;;22.90;99.90;;;;;;5051398;28;20188;-72
2023/03/24 08:05:18;;;;;;;6.33;1.60;;;22.90;99.90;;;;;;5053943;28;20634;-71
2023/03/24 08:07:54;;;;;;;8.50;2.20;;;22.90;99.90;;;;;;5060040;28;20191;-72
2023/03/24 08:10:30;;;;;;;5.07;1.60;;;22.90;99.90;;;;;;5075151;28;20232;-73
2023/03/24 08:12:58;;;;;;;3.90;1.50;;;22.90;99.90;;;;;;5075009;28;20178;-72
2023/03/24 08:15:27;;;;;;;5.73;1.70;;;22.90;99.90;;;;;;5074541;28;20187;-72
2023/03/24 08:17:55;;;;;;;8.27;2.00;;;22.90;99.90;;;;;;5073097;28;20683;-73
2023/03/24 08:20:25;;;;;;;5.47;1.73;;;22.80;99.90;;;;;;5034773;28;20222;-72
2023/03/24 08:22:53;;;;;;;3.23;1.33;;;22.80;99.90;;;;;;5034298;28;20334;-72
2023/03/24 08:25:23;;;;;;;8.73;1.87;;;22.80;99.90;;;;;;5060441;28;20214;-72
2023/03/24 08:27:51;;;;;;;4.03;1.57;;;22.80;99.90;;;;;;5074753;28;20201;-73
2023/03/24 08:30:21;;;;;;;7.10;2.13;;;22.70;99.90;;;;;;5075906;28;20237;-72
2023/03/24 08:32:55;;;;;;;8.07;1.83;;;22.70;99.90;;;;;;5074174;28;20316;-73
2023/03/24 08:35:26;;;;;;;9.17;1.60;;;22.70;99.90;;;;;;5074784;28;20195;-73
2023/03/24 08:37:53;;;;;;;9.13;2.03;;;22.60;99.90;;;;;;5074682;28;20187;-73
2023/03/24 08:40:23;;;;;;;6.13;1.60;;;22.60;99.90;;;;;;5075710;28;20298;-74
2023/03/24 08:42:53;;;;;;;5.53;1.90;;;22.70;99.90;;;;;;5075719;28;20173;-73
2023/03/24 08:45:23;;;;;;;14.33;2.30;;;22.60;99.90;;;;;;5075543;28;20257;-74
2023/03/24 08:47:51;;;;;;;6.00;2.07;;;22.60;99.90;;;;;;5074600;28;20276;-73
2023/03/24 08:50:20;;;;;;;8.67;1.80;;;22.50;99.90;;;;;;5068795;28;20272;-73
2023/03/24 08:52:48;;;;;;;6.10;2.10;;;22.50;99.90;;;;;;5055504;28;20185;-72
2023/03/24 08:55:17;;;;;;;6.07;1.90;;;22.50;99.90;;;;;;5055453;28;20226;-73
2023/03/24 08:57:45;;;;;;;7.80;1.97;;;22.40;99.90;;;;;;5068908;28;20282;-73
2023/03/24 09:00:14;;;;;;;7.20;1.63;;;22.40;99.90;;;;;;5075517;28;20215;-73
2023/03/24 09:02:47;;;;;;;5.93;1.80;;;22.40;99.90;;;;;;5073071;28;20193;-73
2023/03/24 09:05:17;;;;;;;6.00;1.80;;;22.40;99.90;;;;;;5075462;28;20242;-73
2023/03/24 09:07:46;;;;;;;8.67;1.67;;;22.30;99.90;;;;;;5074150;28;20203;-73
2023/03/24 09:10:14;;;;;;;6.87;2.10;;;22.30;99.90;;;;;;5074069;28;20191;-73
2023/03/24 09:12:43;;;;;;;6.87;1.93;;;22.20;99.90;;;;;;5073897;28;20195;-73
2023/03/24 09:15:13;;;;;;;5.93;1.60;;;22.10;99.90;;;;;;5073269;28;20268;-73
2023/03/24 09:17:41;;;;;;;6.37;1.90;;;22.10;99.90;;;;;;5073812;28;20191;-73
2023/03/24 09:20:11;;;;;;;2.57;1.50;;;22.00;99.90;;;;;;5073328;28;20277;-73
2023/03/24 09:22:44;;;;;;;7.83;1.77;;;21.90;99.90;;;;;;5073815;28;20187;-73
2023/03/24 09:25:17;;;;;;;9.23;2.13;;;21.80;99.90;;;;;;5075061;28;20175;-73
2023/03/24 09:27:45;;;;;;;3.40;1.57;;;21.80;99.90;;;;;;5073872;28;20211;-73
2023/03/24 09:30:18;;;;;;;5.83;2.10;;;21.80;99.90;;;;;;5062273;28;20191;-73
2023/03/24 09:32:46;;;;;;;3.63;1.70;;;21.90;99.90;;;;;;5064328;28;20318;-73
2023/03/24 09:35:13;;;;;;;3.80;1.80;;;21.90;99.90;;;;;;5062260;28;20290;-73
2023/03/24 09:37:42;;;;;;;4.40;1.93;;;21.90;99.90;;;;;;5063242;28;20192;-73
2023/03/24 09:40:25;;;;;;;5.30;1.70;;;21.90;99.90;;;;;;5074479;28;20672;-73
2023/03/24 09:43:12;;;;;;;4.80;1.80;;;21.90;99.90;;;;;;5073676;28;20192;-72
2023/03/24 09:45:55;;;;;;;4.50;1.70;;;21.90;99.90;;;;;;5074768;28;20190;-73
2023/03/24 09:48:38;;;;;;;2.50;1.93;;;21.90;99.90;;;;;;5034688;28;20185;-73
2023/03/24 09:51:20;;;;;;;2.67;1.40;;;21.90;99.90;;;;;;5051648;28;20188;-72
2023/03/24 09:53:55;;;;;;;6.00;1.80;;;21.90;99.90;;;;;;5071796;28;20233;-73
2023/03/24 09:56:25;;;;;;;4.27;1.87;;;21.90;99.90;;;;;;5055491;28;20172;-73
2023/03/24 09:59:15;;;;;;;8.30;2.10;;;21.80;99.90;;;;;;5053073;28;20220;-72
2023/03/24 10:01:42;;;;;;;4.60;2.40;;;21.80;99.90;;;;;;5015814;28;20688;-73
2023/03/24 10:04:20;;;;;;;5.80;1.67;;;21.70;99.90;;;;;;5041023;28;20181;-73
2023/03/24 10:06:52;;;;;;;10.40;1.90;;;21.60;99.90;;;;;;5035632;28;20179;-73
2023/03/24 10:09:48;;;;;;;6.97;2.27;;;21.50;99.90;;;;;;5056619;28;20709;-73
2023/03/24 10:12:15;;;;;;;3.93;1.70;;;21.50;99.90;;;;;;5073292;28;20683;-74
2023/03/24 10:15:07;;;;;;;6.13;2.00;;;21.40;99.90;;;;;;5069513;28;20192;-73
2023/03/24 10:17:59;;;;;;;4.23;1.93;;;21.30;99.90;;;;;;5041814;28;20193;-73
2023/03/24 10:20:46;;;;;;;6.70;1.70;;;21.30;99.90;;;;;;5033706;28;20229;-73
2023/03/24 10:23:37;;;;;;;8.70;2.00;;;21.30;99.90;;;;;;5034146;28;20243;-72
2023/03/24 10:26:41;;;;;;;4.67;1.70;;;21.30;99.90;;;;;;5038087;28;20207;-73
2023/03/24 10:29:28;;;;;;;3.63;2.20;;;21.30;99.90;;;;;;5074075;28;20584;-73
2023/03/24 10:32:03;;;;;;;3.57;1.60;;;21.20;99.90;;;;;;5074109;28;20224;-73
2023/03/24 10:34:33;;;;;;;4.50;1.63;;;21.10;99.90;;;;;;5073853;28;20179;-73
2023/03/24 10:37:03;;;;;;;6.60;1.70;;;21.10;99.90;;;;;;5068387;28;20282;-73
2023/03/24 10:39:32;;;;;;;4.73;1.97;;;21.10;99.90;;;;;;5063828;28;20247;-73
2023/03/24 10:42:01;;;;;;;5.47;2.30;;;21.00;99.90;;;;;;5043382;28;20185;-73
2023/03/24 10:44:29;;;;;;;4.20;1.63;;;21.00;99.90;;;;;;5053734;28;20542;-73
2023/03/24 10:47:02;;;;;;;4.97;1.70;;;20.90;99.90;;;;;;5063428;28;20187;-73
2023/03/24 10:49:30;;;;;;;4.83;1.90;;;21.00;99.90;;;;;;5072236;28;20646;-73
2023/03/24 10:52:02;;;;;;;5.73;1.90;;;20.90;99.90;;;;;;5058048;28;20323;-73
2023/03/24 10:54:31;;;;;;;9.33;1.90;;;20.90;99.90;;;;;;5051357;28;20210;-73
2023/03/24 10:57:02;;;;;;;5.73;2.00;;;21.00;99.90;;;;;;5042837;28;20200;-73
2023/03/24 10:59:59;;;;;;;3.03;1.70;;;21.00;99.90;;;;;;5044073;28;20210;-74
2023/03/24 11:02:31;;;;;;;5.07;1.50;;;21.00;99.90;;;;;;5060858;28;20193;-73
2023/03/24 11:05:19;;;;;;;7.13;1.80;;;21.00;99.90;;;;;;5053289;28;20313;-72
2023/03/24 11:07:52;;;;;;;3.77;1.67;;;21.10;99.90;;;;;;5069786;28;20199;-73
2023/03/24 11:10:25;;;;;;;4.67;1.63;;;21.10;99.90;;;;;;5065572;28;20204;-73
2023/03/24 11:12:56;;;;;;;6.13;1.87;;;21.10;99.90;;;;;;5033326;28;20230;-73
2023/03/24 11:15:30;;;;;;;4.87;1.80;;;21.20;99.90;;;;;;5033096;28;20196;-73
2023/03/24 11:18:12;;;;;;;3.43;1.70;;;21.20;99.90;;;;;;5051467;28;20664;-73
2023/03/24 11:20:59;;;;;;;6.47;1.90;;;21.30;99.90;;;;;;5052977;28;20188;-73
2023/03/24 11:23:45;;;;;;;7.60;2.27;;;21.30;99.90;;;;;;5065352;28;20532;-73
2023/03/24 11:26:35;;;;;;;7.87;2.43;;;21.40;99.90;;;;;;5064417;28;20233;-73
2023/03/24 11:29:12;;;;;;;6.90;2.13;;;21.40;99.90;;;;;;5031507;28;20193;-73
2023/03/24 11:31:41;;;;;;;9.90;2.00;;;21.50;99.90;;;;;;5033237;28;20703;-73
2023/03/24 11:34:18;;;;;;;7.07;1.80;;;21.50;99.90;;;;;;5033088;28;20177;-73
2023/03/24 11:36:57;;;;;;;4.97;1.80;;;21.50;99.90;;;;;;5049406;28;20180;-73
2023/03/24 11:39:32;;;;;;;7.57;1.90;;;21.60;99.90;;;;;;5077254;28;20554;-73
2023/03/24 11:42:15;;;;;;;3.37;1.70;;;21.60;99.90;;;;;;5077136;28;20182;-73
2023/03/24 11:44:51;;;;;;;6.90;1.83;;;21.60;99.90;;;;;;5072810;28;20187;-73
2023/03/24 11:47:32;;;;;;;2.80;1.83;;;21.60;99.90;;;;;;5067205;28;20596;-73
2023/03/24 11:50:10;;;;;;;5.87;1.90;;;21.60;99.90;;;;;;5075745;28;20267;-72
2023/03/24 11:52:56;;;;;;;3.20;2.03;;;21.60;99.90;;;;;;5076340;28;20177;-72
2023/03/24 11:55:29;;;;;;;7.37;2.17;;;21.60;99.90;;;;;;5067513;28;20270;-72
2023/03/24 11:58:08;;;;;;;19.07;2.83;;;21.60;99.90;;;;;;5063825;28;20252;-72
2023/03/24 12:01:06;;;;;;;5.43;1.80;;;21.70;99.90;;;;;;5036821;28;20188;-72
2023/03/24 12:04:07;;;;;;;6.23;2.33;;;21.70;99.90;;;;;;5036932;28;20185;-72
2023/03/24 12:06:40;;;;;;;6.57;1.87;;;21.70;99.90;;;;;;5052584;28;20182;-72
2023/03/24 12:09:32;;;;;;;4.40;1.77;;;21.70;99.90;;;;;;5076532;28;20187;-72
2023/03/24 12:12:13;;;;;;;7.03;2.30;;;21.70;99.90;;;;;;5075427;28;20205;-72
2023/03/24 12:15:12;;;;;;;6.03;1.67;;;21.70;99.90;;;;;;5076708;28;20182;-73
2023/03/24 12:17:49;;;;;;;5.03;1.60;;;21.60;99.90;;;;;;5074724;28;20242;-72
2023/03/24 12:20:22;;;;;;;7.73;2.10;;;21.60;99.90;;;;;;5076080;28;20276;-72
2023/03/24 12:22:59;;;;;;;6.33;1.80;;;21.60;99.90;;;;;;5076557;28;20172;-72
2023/03/24 12:25:29;;;;;;;5.10;1.90;;;21.60;99.90;;;;;;5074645;28;20249;-73
2023/03/24 12:28:11;;;;;;;3.80;1.67;;;21.60;99.90;;;;;;5075085;28;20182;-72
2023/03/24 12:31:22;;;;;;;5.67;2.30;;;21.60;99.90;;;;;;5076158;28;20180;-72
2023/03/24 12:33:58;;;;;;;4.33;1.60;;;21.60;99.90;;;;;;5070575;28;20188;-73
2023/03/24 12:36:55;;;;;;;4.87;2.07;;;21.60;99.90;;;;;;5075184;28;20183;-73
2023/03/24 12:39:47;;;;;;;6.53;1.50;;;21.60;99.90;;;;;;5070098;28;20205;-73
2023/03/24 12:42:22;;;;;;;3.50;1.57;;;21.60;99.90;;;;;;5056303;28;20542;-73
2023/03/24 12:45:15;;;;;;;5.33;1.80;;;21.70;99.90;;;;;;5064812;28;20190;-73
2023/03/24 12:48:03;;;;;;;10.67;1.60;;;21.60;99.90;;;;;;5064866;28;20207;-73
2023/03/24 12:50:50;;;;;;;3.70;1.70;;;21.70;99.90;;;;;;5035454;28;20187;-73
2023/03/24 12:53:29;;;;;;;3.67;1.97;;;21.70;99.90;;;;;;5035968;28;20716;-73
2023/03/24 12:56:09;;;;;;;3.70;1.57;;;21.60;99.90;;;;;;5038727;28;20192;-72
2023/03/24 12:58:51;;;;;;;6.67;1.70;;;21.70;99.90;;;;;;5075462;28;20206;-73
2023/03/24 13:01:35;;;;;;;8.07;1.40;;;21.60;99.90;;;;;;5075626;28;20176;-73
2023/03/24 13:04:31;;;;;;;4.57;1.73;;;21.60;99.90;;;;;;5072763;28;20235;-73
2023/03/24 13:07:24;;;;;;;9.40;2.07;;;21.60;99.90;;;;;;5064679;28;20193;-73
2023/03/24 13:10:07;;;;;;;6.53;1.70;;;21.60;99.90;;;;;;5073700;28;20211;-73
2023/03/24 13:12:49;;;;;;;7.87;1.57;;;21.60;99.90;;;;;;5073891;28;20184;-73
2023/03/24 13:15:39;;;;;;;4.17;1.50;;;21.50;99.90;;;;;;5062078;28;20200;-73
2023/03/24 13:18:30;;;;;;;3.10;1.30;;;21.50;99.90;;;;;;5031457;28;20211;-73
2023/03/24 13:21:10;;;;;;;5.73;1.80;;;21.50;99.90;;;;;;5050204;28;20195;-73
2023/03/24 13:23:40;;;;;;;6.30;1.60;;;21.50;99.90;;;;;;5066142;28;20216;-73
2023/03/24 13:26:25;;;;;;;6.20;1.60;;;21.50;99.90;;;;;;5035216;28;20216;-73
2023/03/24 13:29:17;;;;;;;5.47;1.60;;;21.50;99.90;;;;;;5038413;28;20180;-73
2023/03/24 13:31:44;;;;;;;5.80;1.30;;;21.50;99.90;;;;;;5075300;28;20176;-73